Time;durP1;ratioP1;P1;durP2;ratioP2;P2;SDS_P1;SDS_P2;PMS_P1;PMS_P2;Temp;Humidity;BMP_temperature;BMP_pressure;BME280_temperature;BME280_humidity;BME280_pressure;Samples;Min_cycle;Max_cycle;Signal;HPM_P1;HPM_P2
2022/12/19 00:01:37;;;;;;;7.15;4.47;;;17.00;1.00;;;;;;5092758;28;20036;-38
2022/12/19 00:04:06;;;;;;;7.75;4.65;;;17.00;1.00;;;;;;5099234;28;20509;-38
2022/12/19 00:06:36;;;;;;;6.38;4.68;;;16.90;1.00;;;;;;5096330;28;20068;-38
2022/12/19 00:09:08;;;;;;;7.15;4.63;;;16.90;1.00;;;;;;5108617;28;20039;-37
2022/12/19 00:11:34;;;;;;;7.80;4.65;;;16.90;1.00;;;;;;5104057;28;20036;-38
2022/12/19 00:14:02;;;;;;;9.57;5.03;;;16.80;1.00;;;;;;5107030;28;20071;-38
2022/12/19 00:16:29;;;;;;;6.47;3.85;;;16.80;1.00;;;;;;5111790;28;20046;-38
2022/12/19 00:18:59;;;;;;;7.32;4.25;;;16.80;1.00;;;;;;5111902;28;20035;-38
2022/12/19 00:21:31;;;;;;;7.45;5.15;;;16.80;1.00;;;;;;5103410;28;20043;-38
2022/12/19 00:24:04;;;;;;;7.05;4.45;;;16.70;1.00;;;;;;5106986;28;20035;-38
2022/12/19 00:26:46;;;;;;;8.48;4.65;;;16.70;1.00;;;;;;5111528;28;20046;-38
2022/12/19 00:29:13;;;;;;;6.78;4.78;;;16.60;1.00;;;;;;5111719;28;20047;-38
2022/12/19 00:31:40;;;;;;;9.35;4.80;;;16.60;1.00;;;;;;5093534;28;20044;-38
2022/12/19 00:34:08;;;;;;;7.55;4.80;;;16.60;1.00;;;;;;5111501;28;20047;-38
2022/12/19 00:36:34;;;;;;;6.38;4.15;;;16.60;1.00;;;;;;5093691;28;20194;-38
2022/12/19 00:39:03;;;;;;;4.90;4.03;;;16.50;1.00;;;;;;5096890;28;20071;-38
2022/12/19 00:41:36;;;;;;;7.80;4.47;;;16.50;1.00;;;;;;5087786;28;20047;-38
2022/12/19 00:44:10;;;;;;;8.68;5.05;;;16.50;1.00;;;;;;5093939;28;20570;-38
2022/12/19 00:46:37;;;;;;;5.93;4.35;;;16.50;1.00;;;;;;5096903;28;20582;-38
2022/12/19 00:49:05;;;;;;;10.30;4.97;;;16.40;1.00;;;;;;5115159;28;20118;-38
2022/12/19 00:51:34;;;;;;;6.40;4.07;;;16.40;1.00;;;;;;5096764;28;20085;-38
2022/12/19 00:54:01;;;;;;;6.78;4.72;;;16.40;1.00;;;;;;5114820;28;20036;-38
2022/12/19 00:56:33;;;;;;;6.82;4.75;;;16.30;1.00;;;;;;5096640;28;20039;-38
2022/12/19 00:59:05;;;;;;;6.85;4.18;;;16.30;1.00;;;;;;5096806;28;20043;-38
2022/12/19 01:01:35;;;;;;;6.35;4.03;;;16.30;1.00;;;;;;5096671;28;20463;-38
2022/12/19 01:04:04;;;;;;;7.22;4.15;;;16.20;1.00;;;;;;5114565;28;20031;-38
2022/12/19 01:06:51;;;;;;;6.50;4.18;;;16.20;1.00;;;;;;5114526;28;20032;-38
2022/12/19 01:09:20;;;;;;;7.32;4.68;;;16.10;1.00;;;;;;5096606;28;20035;-38
2022/12/19 01:14:34;;;;;;;7.60;4.72;;;16.10;1.00;;;;;;5114485;28;20046;-38
2022/12/19 01:17:01;;;;;;;6.63;4.32;;;16.10;1.00;;;;;;5096270;28;20567;-38
2022/12/19 01:19:27;;;;;;;7.72;4.45;;;16.00;1.00;;;;;;5114670;28;20069;-38
2022/12/19 01:21:54;;;;;;;8.68;4.93;;;16.00;1.00;;;;;;5114511;28;20395;-38
2022/12/19 01:24:21;;;;;;;5.60;3.88;;;16.00;1.00;;;;;;5114261;28;20063;-38
2022/12/19 01:26:48;;;;;;;6.80;4.57;;;16.00;1.00;;;;;;5114184;28;20031;-38
2022/12/19 01:29:15;;;;;;;6.57;4.03;;;15.90;1.00;;;;;;5114432;28;20057;-38
2022/12/19 01:31:42;;;;;;;7.03;4.35;;;15.90;1.00;;;;;;5114371;28;20051;-38
2022/12/19 01:34:09;;;;;;;7.50;4.85;;;15.90;1.00;;;;;;5095809;28;20147;-38
2022/12/19 01:36:36;;;;;;;7.03;4.85;;;15.90;1.00;;;;;;5114233;28;20048;-38
2022/12/19 01:39:06;;;;;;;7.28;4.80;;;15.80;1.00;;;;;;5095961;28;20142;-38
2022/12/19 01:41:33;;;;;;;7.78;4.85;;;15.80;1.00;;;;;;5113980;28;20444;-37
2022/12/19 01:44:02;;;;;;;4.90;3.50;;;15.90;1.00;;;;;;5113925;28;20047;-37
2022/12/19 01:46:40;;;;;;;6.80;3.80;;;15.80;1.00;;;;;;5095701;28;20256;-37
2022/12/19 01:49:33;;;;;;;6.88;3.85;;;15.80;1.00;;;;;;5112990;28;20043;-38
2022/12/19 01:52:03;;;;;;;4.28;3.13;;;15.80;1.00;;;;;;5113462;28;20036;-38
2022/12/19 01:54:39;;;;;;;5.53;3.40;;;15.90;1.00;;;;;;5093860;28;20040;-38
2022/12/19 01:57:10;;;;;;;6.13;3.60;;;16.00;1.00;;;;;;5075308;28;20056;-37
2022/12/19 01:59:42;;;;;;;5.57;3.55;;;16.10;1.00;;;;;;5075370;28;20040;-38
2022/12/19 02:02:13;;;;;;;5.40;3.90;;;16.10;1.00;;;;;;5075191;28;20040;-38
2022/12/19 02:04:40;;;;;;;5.18;3.70;;;16.20;1.00;;;;;;5074987;28;20048;-38
2022/12/19 02:07:08;;;;;;;6.40;3.05;;;16.30;1.00;;;;;;5093214;28;20036;-37
2022/12/19 02:09:47;;;;;;;7.82;4.30;;;16.40;1.00;;;;;;5075105;28;20048;-37
2022/12/19 02:12:35;;;;;;;5.68;3.67;;;16.50;1.00;;;;;;5074830;28;20078;-37
2022/12/19 02:15:04;;;;;;;3.95;3.05;;;16.60;1.00;;;;;;5058322;28;20048;-38
2022/12/19 02:17:55;;;;;;;6.00;3.55;;;16.70;1.00;;;;;;5074792;28;20456;-38
2022/12/19 02:21:13;;;;;;;5.50;3.25;;;16.70;1.00;;;;;;5074993;28;20085;-38
2022/12/19 02:24:01;;;;;;;4.20;2.72;;;16.80;1.00;;;;;;5010360;28;20050;-38
2022/12/19 02:26:50;;;;;;;5.15;3.45;;;16.80;1.00;;;;;;5087512;28;20131;-38
2022/12/19 02:29:25;;;;;;;4.05;2.78;;;16.90;1.00;;;;;;5074653;28;20411;-37
2022/12/19 02:32:03;;;;;;;4.28;2.97;;;16.90;1.00;;;;;;5074538;28;20406;-37
2022/12/19 02:34:41;;;;;;;5.13;3.22;;;16.90;1.00;;;;;;5074372;28;20135;-38
2022/12/19 02:37:19;;;;;;;4.55;3.15;;;16.90;1.00;;;;;;5074430;28;20040;-37
2022/12/19 02:40:15;;;;;;;4.72;3.00;;;16.90;1.00;;;;;;5092607;28;20047;-37
2022/12/19 02:42:47;;;;;;;4.40;2.60;;;16.90;1.00;;;;;;5072206;28;20048;-38
2022/12/19 02:45:19;;;;;;;4.45;2.97;;;16.90;1.00;;;;;;5074386;28;20046;-37
2022/12/19 02:47:57;;;;;;;5.45;3.25;;;16.90;1.00;;;;;;5074105;28;20071;-37
2022/12/19 02:50:39;;;;;;;3.75;2.30;;;16.90;1.00;;;;;;5092479;28;20040;-37
2022/12/19 02:53:08;;;;;;;4.60;3.03;;;16.80;1.00;;;;;;5074021;28;20101;-37
2022/12/19 02:56:01;;;;;;;4.13;2.70;;;16.80;1.00;;;;;;5074168;28;20044;-38
2022/12/19 02:58:37;;;;;;;5.45;3.38;;;16.80;1.00;;;;;;5051510;28;20138;-37
2022/12/19 03:01:13;;;;;;;4.90;3.28;;;16.80;1.00;;;;;;5073948;28;20134;-37
2022/12/19 03:03:52;;;;;;;4.43;2.78;;;16.80;1.00;;;;;;5092003;28;20070;-37
2022/12/19 03:06:34;;;;;;;4.13;2.90;;;16.70;1.00;;;;;;5092155;28;20050;-37
2022/12/19 03:09:29;;;;;;;3.40;2.83;;;16.70;1.00;;;;;;5074050;28;20143;-37
2022/12/19 03:12:06;;;;;;;4.57;3.13;;;16.70;1.00;;;;;;5074036;28;20484;-37
2022/12/19 03:14:40;;;;;;;4.73;3.30;;;16.60;1.00;;;;;;5073825;28;20044;-37
2022/12/19 03:17:07;;;;;;;3.90;2.75;;;16.60;1.00;;;;;;5074227;28;20358;-37
2022/12/19 03:19:37;;;;;;;4.05;2.85;;;16.60;1.00;;;;;;5073722;28;20066;-38
2022/12/19 03:22:05;;;;;;;5.38;3.33;;;16.60;1.00;;;;;;5074076;28;20067;-38
2022/12/19 03:24:32;;;;;;;4.50;3.13;;;16.50;1.00;;;;;;5091708;28;20491;-38
2022/12/19 03:27:06;;;;;;;5.32;3.10;;;16.50;1.00;;;;;;5081491;22;20118;-38
2022/12/19 03:29:41;;;;;;;5.20;3.03;;;16.50;1.00;;;;;;5039911;28;20037;-38
2022/12/19 03:32:12;;;;;;;5.13;3.42;;;16.40;1.00;;;;;;5031777;28;20037;-38
2022/12/19 03:35:05;;;;;;;4.40;3.05;;;16.40;1.00;;;;;;5031664;28;20076;-38
2022/12/19 03:37:37;;;;;;;4.75;2.88;;;16.30;1.00;;;;;;5014042;28;20168;-38
2022/12/19 03:40:10;;;;;;;5.75;3.30;;;16.30;1.00;;;;;;5031799;28;20053;-38
2022/12/19 03:46:00;;;;;;;6.85;3.70;;;16.20;1.00;;;;;;5031849;28;20488;-37
2022/12/19 03:48:44;;;;;;;3.55;2.83;;;16.20;1.00;;;;;;5028284;28;20084;-38
2022/12/19 03:51:25;;;;;;;4.60;3.03;;;16.20;1.00;;;;;;5031744;28;20053;-38
2022/12/19 03:54:13;;;;;;;4.45;3.05;;;16.20;1.00;;;;;;5031382;28;20095;-38
2022/12/19 03:57:06;;;;;;;3.88;2.63;;;16.20;1.00;;;;;;5031667;28;20037;-38
2022/12/19 03:59:39;;;;;;;5.03;3.17;;;16.20;1.00;;;;;;5031548;28;20080;-38
2022/12/19 04:02:08;;;;;;;5.28;3.20;;;16.30;1.00;;;;;;5014121;28;20049;-38
2022/12/19 04:04:42;;;;;;;3.22;2.15;;;16.40;1.00;;;;;;5031371;28;20409;-38
2022/12/19 04:07:11;;;;;;;3.70;2.25;;;16.50;1.00;;;;;;5031529;28;20455;-38
2022/12/19 04:09:41;;;;;;;3.78;2.65;;;16.50;1.00;;;;;;5031237;28;20069;-38
2022/12/19 04:12:21;;;;;;;4.13;2.67;;;16.60;1.00;;;;;;5014992;28;20080;-38
2022/12/19 04:14:49;;;;;;;4.70;3.10;;;16.70;1.00;;;;;;5019428;28;20095;-39
2022/12/19 04:17:43;;;;;;;3.75;2.85;;;16.70;1.00;;;;;;5035076;28;20045;-38
2022/12/19 04:20:14;;;;;;;4.13;2.80;;;16.80;1.00;;;;;;5034692;28;20432;-38
2022/12/19 04:23:14;;;;;;;4.45;2.67;;;16.90;1.00;;;;;;5034900;28;20037;-38
2022/12/19 04:25:47;;;;;;;3.83;2.50;;;17.00;1.00;;;;;;5054032;28;20073;-38
2022/12/19 04:28:23;;;;;;;3.38;2.28;;;17.10;1.00;;;;;;5063038;28;20068;-38
2022/12/19 04:30:52;;;;;;;3.20;2.17;;;17.10;1.00;;;;;;5063100;28;20083;-38
2022/12/19 04:33:19;;;;;;;3.97;2.15;;;17.10;1.00;;;;;;5054527;28;20037;-39
2022/12/19 04:35:46;;;;;;;4.05;2.47;;;17.20;1.00;;;;;;5054742;28;20040;-38
2022/12/19 04:38:13;;;;;;;4.38;3.05;;;17.20;1.00;;;;;;5063687;28;20515;-38
2022/12/19 04:40:40;;;;;;;4.22;2.25;;;17.20;1.00;;;;;;5074541;28;20083;-38
2022/12/19 04:43:07;;;;;;;3.50;2.17;;;17.20;1.00;;;;;;5074368;28;20045;-38
2022/12/19 04:45:34;;;;;;;2.75;2.15;;;17.20;1.00;;;;;;5056924;28;20056;-38
2022/12/19 04:48:02;;;;;;;3.33;2.08;;;17.20;1.00;;;;;;5074532;28;20040;-38
2022/12/19 04:50:31;;;;;;;3.60;2.20;;;17.20;1.00;;;;;;5074548;28;20052;-39
2022/12/19 04:52:58;;;;;;;3.08;2.25;;;17.10;1.00;;;;;;5046455;28;20492;-38
2022/12/19 04:55:25;;;;;;;4.30;2.40;;;17.20;1.00;;;;;;5073207;28;20446;-38
2022/12/19 04:57:52;;;;;;;3.13;1.88;;;17.20;1.00;;;;;;5074512;28;20032;-38
2022/12/19 05:00:19;;;;;;;2.78;1.85;;;17.10;1.00;;;;;;5074412;28;20450;-39
2022/12/19 05:02:45;;;;;;;2.85;2.10;;;17.10;1.00;;;;;;5074133;28;20033;-38
2022/12/19 05:05:12;;;;;;;2.92;1.77;;;17.10;1.00;;;;;;5074281;28;20127;-38
2022/12/19 05:07:39;;;;;;;2.72;2.03;;;17.10;1.00;;;;;;5074244;28;20123;-38
2022/12/19 05:10:07;;;;;;;3.53;2.05;;;17.00;1.00;;;;;;5073914;28;20045;-38
2022/12/19 05:12:34;;;;;;;2.75;1.80;;;17.00;1.00;;;;;;5060712;28;20480;-38
2022/12/19 05:15:01;;;;;;;3.20;1.80;;;16.90;1.00;;;;;;5056524;28;20454;-38
2022/12/19 05:17:27;;;;;;;3.55;1.65;;;16.90;1.00;;;;;;5040159;28;20095;-38
2022/12/19 05:19:54;;;;;;;2.63;1.75;;;16.90;1.00;;;;;;5054074;28;20052;-38
2022/12/19 05:22:21;;;;;;;5.07;1.80;;;16.90;1.00;;;;;;5053737;28;20049;-38
2022/12/19 05:24:48;;;;;;;29.45;4.22;;;16.80;1.00;;;;;;5053680;28;20045;-38
2022/12/19 05:27:14;;;;;;;6.25;1.63;;;16.80;1.00;;;;;;5053645;28;20128;-38
2022/12/19 05:29:41;;;;;;;7.35;2.35;;;16.80;1.00;;;;;;5052966;28;20047;-38
2022/12/19 05:32:08;;;;;;;8.85;2.05;;;16.70;1.00;;;;;;5061833;28;20052;-38
2022/12/19 05:34:35;;;;;;;4.13;1.73;;;16.70;1.00;;;;;;5073591;28;20195;-38
2022/12/19 05:37:02;;;;;;;11.13;1.85;;;16.60;1.00;;;;;;5073499;28;20517;-38
2022/12/19 05:39:29;;;;;;;3.25;1.85;;;16.60;1.00;;;;;;5073724;28;20049;-38
2022/12/19 05:41:56;;;;;;;9.23;1.90;;;16.60;1.00;;;;;;5073571;28;20052;-38
2022/12/19 05:44:23;;;;;;;5.32;1.70;;;16.50;1.00;;;;;;5073384;28;20139;-38
2022/12/19 05:46:50;;;;;;;3.75;1.40;;;16.50;1.00;;;;;;5073343;28;20435;-38
2022/12/19 05:49:17;;;;;;;6.38;1.83;;;16.50;1.00;;;;;;5073437;28;20561;-38
2022/12/19 05:51:45;;;;;;;4.70;2.15;;;16.40;1.00;;;;;;5073294;28;20124;-38
2022/12/19 05:54:11;;;;;;;5.95;1.70;;;16.40;1.00;;;;;;5064270;28;20049;-38
2022/12/19 05:56:38;;;;;;;3.08;1.83;;;16.40;1.00;;;;;;5064072;28;20037;-38
2022/12/19 05:59:05;;;;;;;9.10;2.05;;;16.30;1.00;;;;;;5052034;28;20439;-38
2022/12/19 06:01:32;;;;;;;2.10;1.58;;;16.30;1.00;;;;;;5062870;28;20051;-38
2022/12/19 06:03:59;;;;;;;3.38;1.50;;;16.20;1.00;;;;;;5052845;28;20123;-38
2022/12/19 06:06:26;;;;;;;5.32;1.70;;;16.20;1.00;;;;;;5035409;28;20508;-37
2022/12/19 06:08:54;;;;;;;5.78;2.30;;;16.20;1.00;;;;;;5053007;28;20041;-38
2022/12/19 06:11:21;;;;;;;4.00;1.23;;;16.10;1.00;;;;;;5053029;28;20473;-38
2022/12/19 06:13:48;;;;;;;2.53;1.60;;;16.10;1.00;;;;;;5052743;28;20045;-37
2022/12/19 06:16:19;;;;;;;4.40;1.98;;;16.10;1.00;;;;;;5052753;28;20127;-38
2022/12/19 06:18:46;;;;;;;2.45;1.35;;;16.00;1.00;;;;;;5052875;28;20147;-38
2022/12/19 06:21:19;;;;;;;3.00;1.35;;;16.00;1.00;;;;;;5052841;28;20064;-37
2022/12/19 06:23:49;;;;;;;5.03;1.70;;;15.90;1.00;;;;;;5052548;28;20385;-38
2022/12/19 06:26:22;;;;;;;2.17;1.10;;;15.90;1.00;;;;;;5052607;28;20040;-37
2022/12/19 06:28:50;;;;;;;2.95;1.67;;;15.90;1.00;;;;;;5052626;28;20037;-37
2022/12/19 06:31:22;;;;;;;3.50;1.70;;;15.80;1.00;;;;;;5052569;28;20063;-37
2022/12/19 06:33:50;;;;;;;2.25;1.13;;;15.90;1.00;;;;;;5052395;28;20033;-38
2022/12/19 06:36:18;;;;;;;5.35;1.73;;;15.80;1.00;;;;;;5051919;28;20045;-37
2022/12/19 06:38:46;;;;;;;3.67;1.45;;;15.80;1.00;;;;;;5052415;28;20493;-37
2022/12/19 06:44:00;;;;;;;3.13;1.23;;;15.70;1.00;;;;;;5052194;28;20049;-38
2022/12/19 06:46:27;;;;;;;3.63;1.63;;;15.70;1.00;;;;;;5034403;28;20071;-37
2022/12/19 06:48:54;;;;;;;1.80;1.23;;;15.60;1.00;;;;;;5052237;28;20040;-37
2022/12/19 06:51:21;;;;;;;3.67;1.30;;;15.60;1.00;;;;;;5052243;28;20386;-37
2022/12/19 06:53:49;;;;;;;7.10;1.52;;;15.60;1.00;;;;;;5051974;28;20041;-37
2022/12/19 06:56:17;;;;;;;1.83;1.20;;;15.50;1.00;;;;;;5052016;28;20040;-37
2022/12/19 06:58:44;;;;;;;3.45;1.30;;;15.50;1.00;;;;;;5052251;28;20053;-37
2022/12/19 07:01:18;;;;;;;1.67;1.23;;;15.50;1.00;;;;;;5052008;28;20056;-37
2022/12/19 07:03:46;;;;;;;2.22;1.23;;;15.50;1.00;;;;;;5051794;28;20094;-37
2022/12/19 07:06:13;;;;;;;2.83;1.40;;;15.40;1.00;;;;;;5051895;28;20053;-37
2022/12/19 07:08:40;;;;;;;2.88;1.33;;;15.40;1.00;;;;;;5051883;28;20706;-37
2022/12/19 07:11:06;;;;;;;2.97;1.10;;;15.40;1.00;;;;;;5051930;28;20127;-37
2022/12/19 07:13:33;;;;;;;4.25;1.42;;;15.40;1.00;;;;;;5051738;28;20052;-37
2022/12/19 07:16:02;;;;;;;2.97;1.48;;;15.40;1.00;;;;;;5051891;28;20118;-38
2022/12/19 07:18:33;;;;;;;4.68;2.10;;;15.40;1.00;;;;;;5051867;28;20041;-37
2022/12/19 07:21:01;;;;;;;5.88;1.90;;;15.30;1.00;;;;;;5051825;28;20037;-38
2022/12/19 07:23:28;;;;;;;5.68;1.63;;;15.30;1.00;;;;;;5033841;28;20033;-37
2022/12/19 07:25:54;;;;;;;2.38;1.40;;;15.30;1.00;;;;;;5051622;28;20509;-38
2022/12/19 07:28:21;;;;;;;6.22;2.47;;;15.20;1.00;;;;;;5051611;28;20051;-38
2022/12/19 07:30:48;;;;;;;4.57;1.67;;;15.30;1.00;;;;;;5051732;28;20052;-37
2022/12/19 07:33:15;;;;;;;2.20;1.77;;;15.20;1.00;;;;;;5051527;28;20041;-37
2022/12/19 07:35:47;;;;;;;2.70;1.30;;;15.20;1.00;;;;;;5051659;28;20048;-38
2022/12/19 07:38:14;;;;;;;3.10;1.45;;;15.20;1.00;;;;;;5051669;28;20103;-37
2022/12/19 07:40:40;;;;;;;2.08;1.45;;;15.20;1.00;;;;;;5051670;28;20078;-37
2022/12/19 07:43:07;;;;;;;4.05;1.40;;;15.20;1.00;;;;;;5051443;28;20132;-38
2022/12/19 07:45:36;;;;;;;3.15;1.08;;;15.10;1.00;;;;;;5051586;28;20128;-37
2022/12/19 07:48:05;;;;;;;3.50;1.77;;;15.10;1.00;;;;;;5036885;28;20055;-37
2022/12/19 07:50:32;;;;;;;4.40;1.55;;;15.10;1.00;;;;;;5055539;28;20767;-37
2022/12/19 07:52:59;;;;;;;2.85;1.50;;;15.00;1.00;;;;;;5037495;28;20044;-37
2022/12/19 07:55:26;;;;;;;4.60;2.40;;;15.10;1.00;;;;;;5055487;28;20492;-38
2022/12/19 07:57:54;;;;;;;4.93;1.65;;;15.00;1.00;;;;;;5055494;28;20080;-37
2022/12/19 08:00:21;;;;;;;2.55;1.85;;;15.00;1.00;;;;;;5055500;28;20075;-38
2022/12/19 08:02:49;;;;;;;4.07;1.58;;;15.00;1.00;;;;;;5054909;28;20044;-37
2022/12/19 08:05:16;;;;;;;3.97;1.65;;;15.00;1.00;;;;;;5055236;28;20076;-37
2022/12/19 08:07:43;;;;;;;2.72;1.55;;;15.00;1.00;;;;;;5055391;28;20474;-37
2022/12/19 08:10:11;;;;;;;4.10;1.75;;;15.00;1.00;;;;;;5055164;28;20105;-37
2022/12/19 08:12:38;;;;;;;4.43;1.63;;;14.90;1.00;;;;;;5054909;28;20099;-37
2022/12/19 08:15:05;;;;;;;3.17;1.70;;;14.90;1.00;;;;;;5054915;28;20045;-37
2022/12/19 08:17:34;;;;;;;4.28;2.28;;;14.90;1.00;;;;;;5054973;28;20124;-37
2022/12/19 08:20:01;;;;;;;4.72;1.75;;;14.90;1.00;;;;;;5054746;28;20045;-37
2022/12/19 08:22:30;;;;;;;3.97;1.75;;;14.90;1.00;;;;;;5053725;28;20107;-37
2022/12/19 08:24:56;;;;;;;4.00;1.38;;;14.80;1.00;;;;;;5051414;28;20049;-37
2022/12/19 08:27:24;;;;;;;2.63;1.27;;;14.80;1.00;;;;;;5050037;28;20048;-37
2022/12/19 08:29:51;;;;;;;3.95;1.95;;;14.80;1.00;;;;;;5031635;28;20087;-37
2022/12/19 08:32:18;;;;;;;4.13;1.58;;;14.80;1.00;;;;;;5032997;28;20064;-37
2022/12/19 08:34:48;;;;;;;6.18;2.13;;;14.80;1.00;;;;;;5048959;28;20045;-37
2022/12/19 08:37:15;;;;;;;6.22;1.77;;;14.80;1.00;;;;;;5049906;28;20041;-37
2022/12/19 08:39:42;;;;;;;2.80;1.55;;;14.80;1.00;;;;;;5030928;28;20139;-37
2022/12/19 08:42:09;;;;;;;5.38;1.65;;;14.70;1.00;;;;;;5048502;28;20097;-37
2022/12/19 08:44:36;;;;;;;1.95;1.40;;;14.70;1.00;;;;;;5030798;28;20068;-37
2022/12/19 08:47:03;;;;;;;5.68;2.78;;;14.70;1.00;;;;;;5048435;28;20052;-37
2022/12/19 08:49:30;;;;;;;3.55;1.67;;;14.70;1.00;;;;;;5035099;28;20567;-37
2022/12/19 08:51:56;;;;;;;2.92;1.98;;;14.70;1.00;;;;;;5054444;28;20098;-37
2022/12/19 08:54:23;;;;;;;4.03;1.80;;;14.70;1.00;;;;;;5054128;28;20037;-37
2022/12/19 08:56:50;;;;;;;5.57;2.47;;;14.70;1.00;;;;;;5054362;28;20503;-37
2022/12/19 08:59:17;;;;;;;5.95;1.75;;;14.70;1.00;;;;;;5053609;28;20111;-37
2022/12/19 09:01:57;;;;;;;5.00;1.73;;;14.60;1.00;;;;;;5054542;28;20041;-37
2022/12/19 09:04:25;;;;;;;8.18;1.95;;;14.60;1.00;;;;;;5054100;28;20416;-38
2022/12/19 09:07:12;;;;;;;5.00;1.88;;;14.60;1.00;;;;;;5054148;28;20500;-37
2022/12/19 09:09:44;;;;;;;3.95;2.00;;;14.60;1.00;;;;;;5053979;28;20053;-38
2022/12/19 09:12:13;;;;;;;6.85;2.35;;;14.60;1.00;;;;;;5054034;28;20040;-37
2022/12/19 09:14:40;;;;;;;5.32;1.48;;;14.50;1.00;;;;;;5035993;28;20461;-37
2022/12/19 09:17:07;;;;;;;4.40;2.17;;;14.60;1.00;;;;;;5053973;28;20056;-37
2022/12/19 09:19:33;;;;;;;4.55;2.05;;;14.50;1.00;;;;;;5053977;28;20476;-37
2022/12/19 09:22:00;;;;;;;4.63;2.03;;;14.50;1.00;;;;;;5053874;28;20068;-37
2022/12/19 09:24:27;;;;;;;2.63;1.48;;;14.50;1.00;;;;;;5053551;28;20132;-37
2022/12/19 09:26:53;;;;;;;4.03;1.65;;;14.50;1.00;;;;;;5053693;28;20045;-37
2022/12/19 09:29:20;;;;;;;3.53;1.73;;;14.50;1.00;;;;;;5053750;28;20045;-37
2022/12/19 09:31:49;;;;;;;4.78;1.75;;;14.50;1.00;;;;;;5053752;28;20048;-37
2022/12/19 09:34:27;;;;;;;3.92;1.67;;;14.50;1.00;;;;;;5053533;28;20056;-37
2022/12/19 09:37:06;;;;;;;5.78;2.10;;;14.50;1.00;;;;;;5053709;28;20530;-37
2022/12/19 09:39:35;;;;;;;4.20;1.88;;;14.50;1.00;;;;;;5053613;28;20087;-37
2022/12/19 09:42:21;;;;;;;4.05;1.83;;;14.40;1.00;;;;;;5053416;28;20408;-37
2022/12/19 09:45:04;;;;;;;3.63;2.42;;;14.40;1.00;;;;;;5053306;28;20049;-37
2022/12/19 09:47:33;;;;;;;8.98;2.10;;;14.40;1.00;;;;;;5053507;28;20052;-37
2022/12/19 09:50:01;;;;;;;4.43;1.70;;;14.40;1.00;;;;;;5053316;28;20571;-37
2022/12/19 09:52:42;;;;;;;5.50;1.70;;;14.40;1.00;;;;;;5035353;28;20055;-37
2022/12/19 09:55:17;;;;;;;4.43;2.30;;;14.40;1.00;;;;;;5053316;28;20060;-37
2022/12/19 09:58:21;;;;;;;4.65;2.08;;;14.40;1.00;;;;;;5053225;28;20061;-38
2022/12/19 10:00:56;;;;;;;4.43;1.63;;;14.40;1.00;;;;;;5053246;28;20053;-37
2022/12/19 10:03:31;;;;;;;5.50;1.80;;;14.30;1.00;;;;;;5052935;28;20048;-37
2022/12/19 10:06:15;;;;;;;4.55;1.80;;;14.30;1.00;;;;;;5053034;28;20503;-37
2022/12/19 10:09:01;;;;;;;5.82;2.13;;;14.30;1.00;;;;;;5052635;28;20632;-38
2022/12/19 10:12:16;;;;;;;4.90;2.28;;;14.30;1.00;;;;;;5052962;28;20037;-37
2022/12/19 10:15:27;;;;;;;4.57;1.75;;;14.30;1.00;;;;;;5035161;28;20037;-37
2022/12/19 10:18:19;;;;;;;5.38;2.10;;;14.30;1.00;;;;;;5052718;28;20041;-38
2022/12/19 10:21:20;;;;;;;4.75;2.03;;;14.30;1.00;;;;;;5063761;22;20041;-37
2022/12/19 10:24:22;;;;;;;4.88;1.95;;;14.30;1.00;;;;;;5030874;28;20077;-38
2022/12/19 10:26:58;;;;;;;9.23;3.55;;;14.20;1.00;;;;;;5052696;28;20041;-38
2022/12/19 10:30:01;;;;;;;4.57;2.00;;;14.20;1.00;;;;;;5051813;28;20037;-38
2022/12/19 10:32:47;;;;;;;5.78;1.65;;;14.20;1.00;;;;;;5052568;28;20071;-37
2022/12/19 10:35:17;;;;;;;7.25;2.15;;;14.20;1.00;;;;;;5052457;28;20040;-37
2022/12/19 10:37:59;;;;;;;4.50;1.70;;;14.20;1.00;;;;;;5052462;28;20123;-37
2022/12/19 10:40:36;;;;;;;4.20;1.88;;;14.20;1.00;;;;;;5052115;28;20408;-37
2022/12/19 10:43:37;;;;;;;4.70;2.03;;;14.20;1.00;;;;;;5034215;28;20053;-37
2022/12/19 10:46:20;;;;;;;5.82;2.30;;;14.20;1.00;;;;;;5052471;28;20037;-38
2022/12/19 10:48:51;;;;;;;8.80;2.28;;;14.20;1.00;;;;;;5035153;28;20055;-37
2022/12/19 10:51:25;;;;;;;8.63;2.03;;;14.10;1.00;;;;;;5052253;28;20477;-37
2022/12/19 10:53:54;;;;;;;7.95;2.30;;;14.10;1.00;;;;;;5034269;28;20110;-37
2022/12/19 10:56:27;;;;;;;5.07;2.00;;;14.10;1.00;;;;;;5052143;28;20041;-37
2022/12/19 10:59:14;;;;;;;6.53;2.22;;;14.10;1.00;;;;;;5052002;28;20489;-37
2022/12/19 11:01:42;;;;;;;7.35;2.65;;;14.10;1.00;;;;;;5052026;28;20131;-38
2022/12/19 11:04:18;;;;;;;5.90;2.05;;;14.10;1.00;;;;;;5033994;28;20487;-37
2022/12/19 11:06:48;;;;;;;7.90;2.15;;;14.10;1.00;;;;;;5052069;28;20083;-37
2022/12/19 11:09:51;;;;;;;5.28;2.63;;;14.10;1.00;;;;;;5051901;28;20049;-37
2022/12/19 11:12:51;;;;;;;4.38;2.10;;;14.10;1.00;;;;;;5051603;28;20041;-37
2022/12/19 11:15:49;;;;;;;5.82;2.28;;;14.10;1.00;;;;;;5051863;28;20066;-37
2022/12/19 11:18:44;;;;;;;4.70;2.10;;;14.10;1.00;;;;;;5051749;28;20033;-37
2022/12/19 11:21:32;;;;;;;4.78;2.22;;;14.10;1.00;;;;;;5033511;28;20048;-37
2022/12/19 11:24:26;;;;;;;4.82;2.05;;;14.00;1.00;;;;;;5051408;28;20110;-38
2022/12/19 11:27:36;;;;;;;;;;;14.10;1.00;;;;;;5052217;28;20045;-37
2022/12/19 11:30:26;;;;;;;5.32;2.03;;;14.00;1.00;;;;;;5051347;28;19921;-36
2022/12/19 11:33:15;;;;;;;4.65;2.25;;;14.00;1.00;;;;;;5051326;28;20045;-36
2022/12/19 11:35:52;;;;;;;10.77;2.13;;;14.00;1.00;;;;;;5051677;28;20148;-36
2022/12/19 11:38:33;;;;;;;6.75;1.85;;;14.00;1.00;;;;;;5051616;28;20045;-36
2022/12/19 11:41:15;;;;;;;4.70;2.22;;;14.00;1.00;;;;;;5051429;28;20475;-36
2022/12/19 11:43:55;;;;;;;8.10;2.17;;;14.00;1.00;;;;;;5051315;28;20143;-36
2022/12/19 11:46:43;;;;;;;7.70;1.90;;;14.00;1.00;;;;;;5033728;28;20407;-36
2022/12/19 11:49:18;;;;;;;4.70;1.65;;;14.10;1.00;;;;;;5051352;28;20068;-36
2022/12/19 11:51:49;;;;;;;4.20;1.95;;;14.10;1.00;;;;;;5051316;28;20083;-37
2022/12/19 11:54:16;;;;;;;6.28;2.10;;;14.20;1.00;;;;;;5051242;28;20484;-37
2022/12/19 11:56:43;;;;;;;8.18;2.45;;;14.30;1.00;;;;;;5051331;28;20076;-36
2022/12/19 11:59:12;;;;;;;3.78;2.15;;;14.40;1.00;;;;;;5051440;28;20041;-38
2022/12/19 12:02:22;;;;;;;4.28;1.95;;;14.50;1.00;;;;;;5051094;28;20087;-37
2022/12/19 12:05:08;;;;;;;5.53;1.85;;;14.60;1.00;;;;;;5030799;28;20413;-38
2022/12/19 12:07:38;;;;;;;3.47;1.90;;;14.70;1.00;;;;;;5033858;28;20037;-38
2022/12/19 12:10:27;;;;;;;3.65;1.45;;;14.80;1.00;;;;;;5051181;28;20115;-38
2022/12/19 12:13:30;;;;;;;4.72;2.08;;;14.90;1.00;;;;;;5051114;28;20037;-38
2022/12/19 12:16:17;;;;;;;4.50;1.75;;;14.90;1.00;;;;;;5051173;28;20535;-37
2022/12/19 12:19:23;;;;;;;4.97;2.30;;;15.00;1.00;;;;;;5051190;28;20554;-38
2022/12/19 12:22:47;;;;;;;4.68;1.67;;;15.00;1.00;;;;;;5051195;28;20045;-38
2022/12/19 12:25:53;;;;;;;7.05;1.80;;;15.10;1.00;;;;;;5051280;28;20033;-38
2022/12/19 12:28:58;;;;;;;5.78;2.40;;;15.10;1.00;;;;;;5051076;28;20148;-37
2022/12/19 12:31:53;;;;;;;;;;;15.10;1.00;;;;;;5051445;28;20124;-37
2022/12/19 12:34:54;;;;;;;6.97;1.65;;;15.10;1.00;;;;;;5054416;28;19921;-38
2022/12/19 12:37:55;;;;;;;4.82;1.77;;;15.10;1.00;;;;;;5054858;28;20523;-38
2022/12/19 12:40:56;;;;;;;4.85;1.85;;;15.10;1.00;;;;;;5054481;28;20526;-38
2022/12/19 12:43:51;;;;;;;5.40;1.83;;;15.20;1.00;;;;;;5054359;28;20048;-38
2022/12/19 12:46:30;;;;;;;4.03;1.52;;;15.20;1.00;;;;;;5054600;28;20098;-38
2022/12/19 12:49:04;;;;;;;4.47;1.25;;;15.20;1.00;;;;;;5036855;28;20055;-38
2022/12/19 12:51:32;;;;;;;4.22;2.25;;;15.10;1.00;;;;;;5054452;28;20065;-38
2022/12/19 12:54:06;;;;;;;4.85;1.60;;;15.20;1.00;;;;;;5053999;28;20065;-38
2022/12/19 12:56:35;;;;;;;3.05;1.60;;;15.10;1.00;;;;;;5054538;28;20488;-38
2022/12/19 12:59:22;;;;;;;5.00;1.85;;;15.10;1.00;;;;;;5054419;28;20400;-37
2022/12/19 13:02:06;;;;;;;5.65;1.80;;;15.10;1.00;;;;;;5054437;28;20128;-38
2022/12/19 13:04:41;;;;;;;6.50;1.98;;;15.10;1.00;;;;;;5036226;28;20384;-37
2022/12/19 13:07:12;;;;;;;3.38;1.45;;;15.10;1.00;;;;;;5054330;28;20259;-38
2022/12/19 13:09:41;;;;;;;5.18;1.75;;;15.10;1.00;;;;;;5054279;28;20385;-37
2022/12/19 13:15:28;;;;;;;4.47;1.90;;;15.00;1.00;;;;;;5054115;28;20037;-37
2022/12/19 13:17:55;;;;;;;4.80;1.40;;;15.00;1.00;;;;;;5054064;28;20041;-37
2022/12/19 13:20:28;;;;;;;6.13;1.55;;;15.00;1.00;;;;;;5053771;28;20496;-37
2022/12/19 13:22:57;;;;;;;3.88;1.85;;;15.00;1.00;;;;;;5053630;28;20110;-38
2022/12/19 13:25:33;;;;;;;5.30;1.70;;;15.00;1.00;;;;;;5053981;28;20041;-37
2022/12/19 13:28:02;;;;;;;4.45;1.73;;;15.00;1.00;;;;;;5054005;28;20404;-38
2022/12/19 13:30:33;;;;;;;5.18;2.10;;;15.00;1.00;;;;;;5053603;28;20079;-37
2022/12/19 13:33:20;;;;;;;4.95;1.70;;;14.90;1.00;;;;;;5038598;28;20118;-37
2022/12/19 13:35:47;;;;;;;4.97;1.83;;;14.90;1.00;;;;;;5053607;28;20037;-36
2022/12/19 13:38:46;;;;;;;4.18;1.48;;;14.90;1.00;;;;;;5035722;28;20041;-36
2022/12/19 13:44:27;;;;;;;4.78;1.67;;;14.90;1.00;;;;;;5053025;28;20037;-36
2022/12/19 13:46:55;;;;;;;5.68;2.42;;;14.90;1.00;;;;;;5053259;28;20048;-37
2022/12/19 13:49:41;;;;;;;6.15;2.00;;;14.90;1.00;;;;;;5053071;28;20047;-36
2022/12/19 13:52:10;;;;;;;4.32;1.83;;;14.80;1.00;;;;;;5053028;28;20052;-37